createdAt,value
2023-04-04T00:01:49.502Z,0.82
2023-04-04T00:04:17.650Z,0.73
2023-04-04T00:06:45.923Z,1.30
2023-04-04T00:09:13.094Z,1.08
2023-04-04T00:11:42.597Z,0.73
2023-04-04T00:14:09.735Z,1.45
2023-04-04T00:16:37.102Z,1.20
2023-04-04T00:19:04.153Z,1.02
2023-04-04T00:21:31.143Z,1.08
2023-04-04T00:23:58.716Z,0.82
2023-04-04T00:26:28.792Z,1.40
2023-04-04T00:28:57.139Z,1.48
2023-04-04T00:31:24.298Z,1.40
2023-04-04T00:33:51.357Z,1.67
2023-04-04T00:36:18.557Z,1.45
2023-04-04T00:38:45.597Z,3.13
2023-04-04T00:41:12.640Z,2.10
2023-04-04T00:43:40.754Z,1.85
2023-04-04T00:46:11.612Z,3.72
2023-04-04T00:48:39.309Z,3.25
2023-04-04T00:51:06.729Z,3.47
2023-04-04T00:53:33.856Z,2.28
2023-04-04T00:56:01.039Z,2.85
2023-04-04T00:58:28.043Z,2.20
2023-04-04T01:00:55.257Z,1.75
2023-04-04T01:03:24.632Z,2.63
2023-04-04T01:08:22.839Z,2.30
2023-04-04T01:10:50.652Z,3.60
2023-04-04T01:13:17.831Z,4.03
2023-04-04T01:15:45.697Z,4.47
2023-04-04T01:18:15.912Z,3.67
2023-04-04T01:20:52.563Z,3.20
2023-04-04T01:23:21.934Z,2.22
2023-04-04T01:25:50.596Z,1.58
2023-04-04T01:28:17.600Z,1.65
2023-04-04T01:30:45.869Z,1.40
2023-04-04T01:33:18.728Z,2.13
2023-04-04T01:35:52.581Z,0.45
2023-04-04T01:38:25.411Z,0.95
2023-04-04T01:40:56.546Z,0.70
2023-04-04T01:43:24.767Z,0.90
2023-04-04T01:45:51.979Z,1.75
2023-04-04T01:48:19.926Z,0.60
2023-04-04T01:50:51.262Z,0.73
2023-04-04T01:53:18.440Z,1.10
2023-04-04T01:55:45.708Z,0.57
2023-04-04T01:58:16.061Z,0.95
2023-04-04T02:00:43.195Z,1.77
2023-04-04T02:03:11.170Z,1.55
2023-04-04T02:05:38.148Z,0.50
2023-04-04T02:08:05.719Z,1.58
2023-04-04T02:10:41.918Z,0.52
2023-04-04T02:13:09.119Z,0.98
2023-04-04T02:15:37.977Z,0.57
2023-04-04T02:18:05.115Z,1.25
2023-04-04T02:20:32.691Z,1.17
2023-04-04T02:22:59.717Z,5.57
2023-04-04T02:25:26.786Z,1.95
2023-04-04T02:27:53.756Z,0.85
2023-04-04T02:30:20.958Z,2.67
2023-04-04T02:32:50.575Z,1.55
2023-04-04T02:35:19.918Z,1.38
2023-04-04T02:37:49.786Z,1.05
2023-04-04T02:40:24.228Z,0.57
2023-04-04T02:42:51.467Z,1.08
2023-04-04T02:47:57.389Z,1.02
2023-04-04T02:50:35.608Z,0.80
2023-04-04T02:53:03.112Z,1.15
2023-04-04T02:55:33.333Z,0.60
2023-04-04T02:58:01.973Z,0.90
2023-04-04T03:00:29.493Z,0.75
2023-04-04T03:02:58.141Z,0.60
2023-04-04T03:05:32.018Z,1.00
2023-04-04T03:07:59.693Z,7.28
2023-04-04T03:10:31.748Z,2.65
2023-04-04T03:12:59.162Z,1.15
2023-04-04T03:15:28.034Z,2.25
2023-04-04T03:17:55.484Z,1.15
2023-04-04T03:20:27.233Z,1.80
2023-04-04T03:22:54.237Z,1.02
2023-04-04T03:25:21.776Z,1.25
2023-04-04T03:27:49.003Z,1.23
2023-04-04T03:30:22.621Z,1.77
2023-04-04T03:32:50.919Z,1.40
2023-04-04T03:35:18.027Z,1.92
2023-04-04T03:37:46.422Z,1.33
2023-04-04T03:40:14.385Z,1.83
2023-04-04T03:42:42.332Z,1.10
2023-04-04T03:45:11.879Z,2.05
2023-04-04T03:47:40.930Z,3.40
2023-04-04T03:50:08.751Z,1.85
2023-04-04T03:52:40.370Z,2.25
2023-04-04T03:55:10.034Z,1.75
2023-04-04T03:57:37.309Z,1.90
2023-04-04T04:00:09.390Z,3.75
2023-04-04T04:02:39.412Z,3.35
2023-04-04T04:05:07.904Z,3.10
2023-04-04T04:07:34.999Z,2.30
2023-04-04T04:10:02.030Z,2.25
2023-04-04T04:12:30.330Z,3.55
2023-04-04T04:14:57.347Z,2.28
2023-04-04T04:17:24.451Z,3.67
2023-04-04T04:19:51.641Z,3.60
2023-04-04T04:22:18.974Z,6.30
2023-04-04T04:24:45.969Z,5.20
2023-04-04T04:27:13.677Z,7.28
2023-04-04T04:29:42.106Z,4.45
2023-04-04T04:34:42.902Z,5.07
2023-04-04T04:37:10.062Z,4.45
2023-04-04T04:39:44.841Z,3.60
2023-04-04T04:42:32.291Z,4.10
2023-04-04T04:45:02.888Z,4.85
2023-04-04T04:47:33.680Z,4.03
2023-04-04T04:50:04.912Z,5.03
2023-04-04T04:52:37.667Z,6.88
2023-04-04T04:55:05.626Z,3.53
2023-04-04T04:57:34.795Z,2.30
2023-04-04T05:00:10.085Z,2.80
2023-04-04T05:02:37.462Z,3.20
2023-04-04T05:05:06.368Z,4.55
2023-04-04T05:07:34.311Z,3.80
2023-04-04T05:10:02.257Z,5.68
2023-04-04T05:12:29.487Z,6.47
2023-04-04T05:14:57.239Z,6.15
2023-04-04T05:17:26.616Z,5.30
2023-04-04T05:19:57.848Z,6.00
2023-04-04T05:22:24.910Z,6.32
2023-04-04T05:24:53.282Z,5.97
2023-04-04T05:27:23.966Z,7.38
2023-04-04T05:29:58.277Z,9.27
2023-04-04T05:32:33.292Z,9.85
2023-04-04T05:35:09.319Z,8.93
2023-04-04T05:37:39.268Z,9.13
2023-04-04T05:40:10.467Z,10.68
2023-04-04T05:42:38.206Z,9.00
2023-04-04T05:45:06.839Z,7.85
2023-04-04T05:47:35.264Z,6.57
2023-04-04T05:50:03.990Z,6.72
2023-04-04T05:52:33.981Z,6.55
2023-04-04T05:55:01.934Z,7.43
2023-04-04T05:57:32.803Z,6.15
2023-04-04T06:00:00.729Z,7.00
2023-04-04T06:02:27.909Z,6.25
2023-04-04T06:05:01.056Z,5.97
2023-04-04T06:07:34.156Z,7.47
2023-04-04T06:10:01.406Z,12.00
2023-04-04T06:12:29.359Z,14.93
2023-04-04T06:14:56.790Z,15.43
2023-04-04T06:17:24.328Z,17.50
2023-04-04T06:19:51.416Z,20.38
2023-04-04T06:22:19.767Z,13.85
2023-04-04T06:24:50.014Z,11.45
2023-04-04T06:27:17.902Z,11.57
2023-04-04T06:29:46.923Z,10.05
2023-04-04T06:32:18.144Z,8.90
2023-04-04T06:34:45.251Z,10.02
2023-04-04T06:37:13.830Z,8.48
2023-04-04T06:39:53.856Z,9.05
2023-04-04T06:42:24.744Z,9.05
2023-04-04T06:44:53.046Z,7.13
2023-04-04T06:47:21.434Z,6.78
2023-04-04T06:49:48.514Z,8.43
2023-04-04T06:52:17.125Z,6.13
2023-04-04T06:54:44.582Z,5.03
2023-04-04T06:57:12.937Z,2.28
2023-04-04T06:59:42.805Z,2.17
2023-04-04T07:02:11.160Z,1.45
2023-04-04T07:04:39.755Z,0.85
2023-04-04T07:07:06.753Z,1.05
2023-04-04T07:09:33.773Z,1.95
2023-04-04T07:12:01.207Z,1.27
2023-04-04T07:14:29.951Z,1.08
2023-04-04T07:19:28.619Z,0.60
2023-04-04T07:21:56.076Z,0.73
2023-04-04T07:24:23.148Z,1.10
2023-04-04T07:26:50.213Z,1.67
2023-04-04T07:29:17.637Z,1.02
2023-04-04T07:31:46.266Z,1.00
2023-04-04T07:34:13.491Z,2.75
2023-04-04T07:36:40.551Z,0.55
2023-04-04T07:39:08.142Z,1.50
2023-04-04T07:41:35.789Z,1.38
2023-04-04T07:44:02.765Z,0.70
2023-04-04T07:46:29.796Z,2.45
2023-04-04T07:48:58.136Z,0.95
2023-04-04T07:51:30.141Z,0.40
2023-04-04T07:53:57.233Z,0.50
2023-04-04T07:56:24.272Z,0.40
2023-04-04T07:58:51.345Z,0.57
2023-04-04T08:01:18.325Z,1.15
2023-04-04T08:03:45.963Z,1.10
2023-04-04T08:06:14.655Z,0.50
2023-04-04T08:08:46.666Z,0.70
2023-04-04T08:11:13.790Z,0.98
2023-04-04T08:13:41.302Z,0.82
2023-04-04T08:16:08.798Z,0.65
2023-04-04T08:18:35.803Z,0.43
2023-04-04T08:21:02.791Z,0.55
2023-04-04T08:23:31.545Z,1.02
2023-04-04T08:26:00.233Z,1.38
2023-04-04T08:28:30.150Z,1.88
2023-04-04T08:30:57.179Z,0.85
2023-04-04T08:33:29.004Z,0.60
2023-04-04T08:36:01.399Z,1.48
2023-04-04T08:38:28.409Z,1.45
2023-04-04T08:40:56.738Z,0.77
2023-04-04T08:43:24.834Z,0.75
2023-04-04T08:45:54.192Z,0.52
2023-04-04T08:48:24.090Z,0.43
2023-04-04T08:50:51.603Z,1.38
2023-04-04T08:53:19.138Z,0.85
2023-04-04T08:55:46.075Z,0.47
2023-04-04T08:58:14.941Z,1.02
2023-04-04T09:05:37.827Z,1.05
2023-04-04T09:08:08.887Z,1.27
2023-04-04T09:10:38.069Z,0.40
2023-04-04T09:13:15.590Z,0.55
2023-04-04T09:15:48.191Z,0.85
2023-04-04T09:18:15.358Z,0.85
2023-04-04T09:20:43.134Z,0.75
2023-04-04T09:23:12.494Z,0.73
2023-04-04T09:25:56.184Z,0.73
2023-04-04T09:30:56.518Z,0.82
2023-04-04T09:33:26.460Z,1.40
2023-04-04T09:35:56.309Z,0.70
2023-04-04T09:38:24.350Z,1.05
2023-04-04T09:40:52.859Z,1.40
2023-04-04T09:43:22.440Z,1.05
2023-04-04T09:45:50.759Z,0.95
2023-04-04T09:48:27.338Z,0.60
2023-04-04T09:50:54.810Z,1.05
2023-04-04T09:53:21.799Z,1.70
2023-04-04T09:55:52.524Z,0.85
2023-04-04T09:58:26.284Z,1.25
2023-04-04T10:00:54.591Z,0.75
2023-04-04T10:03:23.249Z,1.33
2023-04-04T10:05:58.104Z,0.60
2023-04-04T10:08:27.452Z,2.20
2023-04-04T10:11:09.514Z,0.73
2023-04-04T10:13:41.749Z,1.23
2023-04-04T10:16:09.392Z,1.40
2023-04-04T10:18:37.054Z,1.33
2023-04-04T10:23:39.090Z,0.80
2023-04-04T10:26:06.693Z,1.08
2023-04-04T10:28:34.596Z,1.02
2023-04-04T10:31:07.597Z,2.13
2023-04-04T10:33:40.868Z,0.73
2023-04-04T10:36:09.864Z,2.00
2023-04-04T10:38:44.989Z,1.20
2023-04-04T10:41:14.126Z,0.73
2023-04-04T10:43:45.908Z,2.05
2023-04-04T10:46:16.349Z,1.00
2023-04-04T10:48:43.874Z,1.25
2023-04-04T10:51:12.988Z,0.90
2023-04-04T10:53:40.919Z,0.77
2023-04-04T10:56:08.533Z,0.85
2023-04-04T10:58:39.966Z,1.02
2023-04-04T11:01:08.032Z,0.90
2023-04-04T11:04:18.731Z,1.23
2023-04-04T11:07:13.640Z,1.27
2023-04-04T11:09:53.980Z,1.95
2023-04-04T11:12:31.474Z,1.10
2023-04-04T11:15:08.456Z,1.63
2023-04-04T11:17:52.933Z,1.60
2023-04-04T11:20:21.553Z,1.50
2023-04-04T11:22:51.589Z,1.75
2023-04-04T11:25:40.914Z,1.52
2023-04-04T11:28:26.174Z,1.45
2023-04-04T11:31:29.418Z,1.20
2023-04-04T11:34:00.812Z,1.83
2023-04-04T11:36:50.760Z,1.50
2023-04-04T11:39:28.799Z,1.45
2023-04-04T11:41:57.585Z,1.45
2023-04-04T11:44:29.261Z,1.60
2023-04-04T11:46:57.311Z,2.20
2023-04-04T11:49:32.142Z,2.33
2023-04-04T11:51:59.162Z,1.08
2023-04-04T11:54:28.038Z,1.80
2023-04-04T11:59:22.739Z,2.13
2023-04-04T12:01:49.828Z,1.17
2023-04-04T12:04:20.347Z,1.50
2023-04-04T12:06:51.591Z,1.63
2023-04-04T12:09:20.373Z,1.95
2023-04-04T12:11:49.550Z,1.63
2023-04-04T12:14:18.274Z,1.83
2023-04-04T12:16:46.107Z,3.58
2023-04-04T12:19:13.134Z,1.65
2023-04-04T12:21:40.759Z,1.75
2023-04-04T12:24:08.701Z,1.67
2023-04-04T12:26:37.406Z,1.88
2023-04-04T12:29:06.084Z,1.98
2023-04-04T12:31:34.141Z,2.45
2023-04-04T12:34:01.309Z,2.00
2023-04-04T12:36:30.004Z,2.67
2023-04-04T12:38:58.844Z,2.92
2023-04-04T12:41:25.925Z,2.53
2023-04-04T12:43:53.219Z,2.30
2023-04-04T12:46:26.360Z,3.30
2023-04-04T12:48:53.981Z,1.90
2023-04-04T12:51:20.936Z,2.55
2023-04-04T12:53:53.003Z,3.13
2023-04-04T12:56:20.573Z,2.28
2023-04-04T12:58:50.411Z,3.40
2023-04-04T13:01:17.486Z,2.55
2023-04-04T13:03:46.212Z,3.33
2023-04-04T13:06:15.822Z,3.35
2023-04-04T13:08:50.487Z,3.65
2023-04-04T13:11:17.478Z,3.38
2023-04-04T13:16:31.254Z,3.40
2023-04-04T13:18:59.732Z,3.00
2023-04-04T13:21:26.847Z,3.08
2023-04-04T13:23:53.840Z,3.30
2023-04-04T13:26:21.710Z,2.60
2023-04-04T13:28:48.796Z,4.43
2023-04-04T13:31:16.542Z,2.67
2023-04-04T13:33:43.576Z,3.67
2023-04-04T13:36:14.096Z,4.38
2023-04-04T13:38:43.917Z,3.63
2023-04-04T13:41:12.317Z,4.45
2023-04-04T13:43:39.262Z,3.95
2023-04-04T13:46:06.398Z,4.15
2023-04-04T13:48:33.425Z,4.15
2023-04-04T13:51:00.588Z,4.43
2023-04-04T13:53:28.954Z,5.53
2023-04-04T13:56:17.198Z,4.18
2023-04-04T13:58:43.354Z,4.07
2023-04-04T14:01:10.472Z,4.90
2023-04-04T14:03:37.578Z,4.47
2023-04-04T14:06:10.396Z,3.92
2023-04-04T14:08:40.002Z,4.50
2023-04-04T14:11:07.276Z,4.22
2023-04-04T14:13:34.333Z,5.03
2023-04-04T14:16:01.480Z,5.55
2023-04-04T14:18:28.579Z,7.35
2023-04-04T14:20:55.753Z,6.05
2023-04-04T14:23:22.725Z,5.80
2023-04-04T14:25:51.183Z,4.25
2023-04-04T14:28:18.802Z,4.93
2023-04-04T14:30:45.760Z,5.80
2023-04-04T14:33:12.874Z,6.90
2023-04-04T14:35:40.174Z,4.70
2023-04-04T14:38:07.376Z,6.10
2023-04-04T14:40:34.383Z,4.93
2023-04-04T14:43:02.848Z,5.68
2023-04-04T14:45:30.247Z,6.60
2023-04-04T14:47:57.235Z,5.97
2023-04-04T14:50:24.294Z,4.10
2023-04-04T14:52:52.983Z,5.50
2023-04-04T14:55:20.898Z,3.40
2023-04-04T14:58:01.161Z,4.13
2023-04-04T15:00:30.973Z,3.80
2023-04-04T15:02:58.217Z,3.85
2023-04-04T15:05:26.517Z,5.82
2023-04-04T15:07:53.724Z,9.93
2023-04-04T15:10:21.276Z,4.72
2023-04-04T15:12:48.388Z,6.20
2023-04-04T15:15:15.970Z,4.70
2023-04-04T15:17:44.885Z,5.05
2023-04-04T15:20:12.451Z,4.93
2023-04-04T15:22:41.599Z,4.93
2023-04-04T15:25:09.535Z,3.55
2023-04-04T15:27:36.724Z,3.38
2023-04-04T15:30:04.234Z,5.68
2023-04-04T15:32:31.359Z,3.25
2023-04-04T15:34:59.917Z,4.78
2023-04-04T15:37:27.181Z,5.80
2023-04-04T15:39:54.848Z,4.35
2023-04-04T15:42:21.838Z,4.45
2023-04-04T15:44:48.827Z,4.88
2023-04-04T15:47:16.733Z,4.38
2023-04-04T15:49:43.762Z,3.92
2023-04-04T15:52:12.338Z,4.53
2023-04-04T15:54:39.289Z,6.07
2023-04-04T15:57:06.354Z,4.07
2023-04-04T15:59:33.537Z,3.53
2023-04-04T16:02:00.610Z,4.85
2023-04-04T16:04:27.631Z,4.40
2023-04-04T16:06:54.619Z,4.47
2023-04-04T16:09:23.228Z,4.93
2023-04-04T16:11:50.196Z,3.65
2023-04-04T16:14:17.221Z,4.53
2023-04-04T16:16:44.783Z,5.68
2023-04-04T16:19:14.329Z,4.82
2023-04-04T16:21:42.003Z,5.68
2023-04-04T16:24:09.153Z,6.30
2023-04-04T16:26:37.702Z,6.30
2023-04-04T16:29:04.742Z,5.50
2023-04-04T16:31:32.165Z,5.18
2023-04-04T16:33:59.260Z,4.60
2023-04-04T16:36:26.445Z,6.05
2023-04-04T16:38:55.123Z,6.35
2023-04-04T16:41:22.122Z,6.50
2023-04-04T16:43:52.884Z,6.20
2023-04-04T16:46:19.923Z,5.68
2023-04-04T16:48:47.299Z,6.20
2023-04-04T16:51:14.391Z,5.15
2023-04-04T16:53:43.907Z,7.00
2023-04-04T16:56:11.049Z,6.55
2023-04-04T16:58:38.131Z,5.72
2023-04-04T17:01:06.765Z,7.90
2023-04-04T17:03:34.111Z,4.50
2023-04-04T17:06:01.819Z,5.65
2023-04-04T17:08:28.837Z,7.10
2023-04-04T17:10:55.819Z,6.85
2023-04-04T17:13:22.817Z,6.63
2023-04-04T17:15:49.918Z,6.80
2023-04-04T17:18:18.241Z,8.18
2023-04-04T17:20:45.374Z,7.90
2023-04-04T17:23:12.360Z,7.57
2023-04-04T17:25:39.277Z,8.02
2023-04-04T17:28:07.503Z,6.82
2023-04-04T17:30:34.579Z,8.30
2023-04-04T17:33:01.646Z,8.95
2023-04-04T17:35:30.032Z,7.63
2023-04-04T17:37:56.972Z,7.45
2023-04-04T17:40:23.956Z,8.57
2023-04-04T17:42:51.359Z,7.93
2023-04-04T17:45:19.113Z,9.45
2023-04-04T17:47:46.316Z,9.45
2023-04-04T17:50:13.745Z,7.00
2023-04-04T17:52:42.517Z,7.63
2023-04-04T17:55:10.314Z,8.77
2023-04-04T17:57:37.599Z,10.63
2023-04-04T18:00:05.648Z,5.28
2023-04-04T18:02:35.033Z,5.65
2023-04-04T18:05:02.050Z,8.35
2023-04-04T18:07:29.042Z,6.63
2023-04-04T18:09:57.544Z,9.40
2023-04-04T18:12:27.082Z,9.38
2023-04-04T18:14:54.139Z,8.35
2023-04-04T18:17:21.531Z,8.48
2023-04-04T18:19:48.450Z,8.48
2023-04-04T18:22:15.554Z,8.02
2023-04-04T18:24:42.937Z,9.95
2023-04-04T18:27:11.528Z,6.72
2023-04-04T18:29:38.516Z,9.75
2023-04-04T18:32:05.769Z,8.63
2023-04-04T18:34:32.882Z,10.88
2023-04-04T18:36:59.997Z,12.75
2023-04-04T18:39:27.788Z,8.82
2023-04-04T18:41:55.038Z,7.45
2023-04-04T18:44:23.432Z,7.32
2023-04-04T18:46:50.493Z,7.75
2023-04-04T18:49:17.532Z,7.90
2023-04-04T18:51:44.549Z,8.25
2023-04-04T18:54:11.550Z,9.15
2023-04-04T18:56:39.005Z,6.88
2023-04-04T18:59:06.204Z,8.32
2023-04-04T19:01:36.038Z,8.60
2023-04-04T19:04:03.731Z,6.97
2023-04-04T19:06:31.658Z,9.90
2023-04-04T19:09:00.745Z,8.07
2023-04-04T19:13:54.534Z,9.63
2023-04-04T19:16:21.631Z,7.88
2023-04-04T19:18:50.064Z,10.60
2023-04-04T19:21:17.004Z,8.15
2023-04-04T19:23:44.021Z,9.43
2023-04-04T19:26:11.047Z,5.32
2023-04-04T19:28:38.004Z,8.32
2023-04-04T19:31:08.384Z,8.20
2023-04-04T19:33:35.612Z,6.65
2023-04-04T19:36:08.010Z,8.20
2023-04-04T19:38:54.788Z,6.53
2023-04-04T19:41:34.248Z,9.93
2023-04-04T19:44:01.852Z,8.15
2023-04-04T19:46:31.701Z,10.02
2023-04-04T19:48:59.270Z,8.05
2023-04-04T19:51:51.869Z,6.82
2023-04-04T19:54:24.384Z,7.10
2023-04-04T19:56:58.925Z,8.75
2023-04-04T19:59:58.729Z,8.82
2023-04-04T20:03:00.029Z,7.68
2023-04-04T20:06:02.737Z,6.95
2023-04-04T20:08:44.191Z,8.00
2023-04-04T20:11:12.327Z,6.88
2023-04-04T20:13:39.803Z,7.60
2023-04-04T20:16:09.001Z,8.98
2023-04-04T20:21:07.009Z,9.23
2023-04-04T20:23:43.469Z,7.18
2023-04-04T20:26:13.739Z,8.57
2023-04-04T20:28:41.388Z,7.93
2023-04-04T20:31:12.230Z,7.40
2023-04-04T20:33:40.645Z,9.40
2023-04-04T20:36:10.561Z,6.88
2023-04-04T20:38:38.807Z,10.10
2023-04-04T20:41:14.303Z,10.52
2023-04-04T20:43:41.739Z,7.13
2023-04-04T20:46:08.772Z,6.47
2023-04-04T20:48:37.922Z,8.00
2023-04-04T20:51:24.045Z,9.02
2023-04-04T20:53:51.888Z,7.35
2023-04-04T20:56:52.427Z,7.50
2023-04-04T20:59:43.653Z,8.45
2023-04-04T21:02:16.850Z,8.55
2023-04-04T21:04:45.795Z,11.57
2023-04-04T21:07:48.600Z,7.95
2023-04-04T21:10:44.078Z,6.50
2023-04-04T21:13:12.551Z,4.03
2023-04-04T21:15:39.476Z,9.80
2023-04-04T21:18:08.607Z,7.53
2023-04-04T21:21:10.167Z,5.95
2023-04-04T21:26:08.604Z,6.60
2023-04-04T21:28:38.349Z,6.15
2023-04-04T21:31:12.162Z,9.18
2023-04-04T21:33:39.551Z,8.93
2023-04-04T21:36:07.830Z,6.63
2023-04-04T21:38:35.509Z,8.43
2023-04-04T21:41:14.577Z,7.25
2023-04-04T21:43:42.939Z,7.93
2023-04-04T21:46:10.912Z,9.00
2023-04-04T21:48:37.959Z,8.32
2023-04-04T21:51:05.446Z,7.05
2023-04-04T21:53:32.400Z,5.47
2023-04-04T21:55:59.452Z,8.07
2023-04-04T21:58:26.585Z,7.68
2023-04-04T22:00:55.003Z,8.45
2023-04-04T22:03:22.034Z,9.52
2023-04-04T22:05:50.602Z,5.88
2023-04-04T22:08:17.509Z,6.68
2023-04-04T22:10:50.159Z,6.22
2023-04-04T22:13:18.707Z,8.52
2023-04-04T22:15:47.120Z,9.43
2023-04-04T22:18:16.240Z,9.18
2023-04-04T22:20:44.719Z,6.60
2023-04-04T22:23:13.418Z,7.28
2023-04-04T22:25:40.500Z,6.10
2023-04-04T22:28:11.033Z,6.47
2023-04-04T22:30:42.657Z,8.80
2023-04-04T22:33:10.675Z,7.55
2023-04-04T22:35:39.817Z,8.90
2023-04-04T22:38:06.772Z,7.50
2023-04-04T22:40:34.352Z,7.70
2023-04-04T22:43:04.586Z,9.45
2023-04-04T22:45:32.297Z,7.18
2023-04-04T22:48:02.211Z,7.85
2023-04-04T22:50:29.830Z,8.90
2023-04-04T22:52:58.899Z,8.27
2023-04-04T22:55:26.765Z,9.55
2023-04-04T22:57:53.976Z,9.65
2023-04-04T23:00:21.222Z,10.18
2023-04-04T23:02:49.162Z,10.68
2023-04-04T23:05:17.724Z,8.32
2023-04-04T23:07:45.863Z,8.45
2023-04-04T23:10:16.116Z,6.55
2023-04-04T23:12:43.114Z,7.97
2023-04-04T23:15:10.453Z,8.57
2023-04-04T23:17:38.921Z,7.57
2023-04-04T23:20:10.464Z,8.50
2023-04-04T23:22:38.115Z,7.70
2023-04-04T23:25:06.643Z,6.60
2023-04-04T23:27:35.521Z,10.52
2023-04-04T23:30:03.986Z,7.47
2023-04-04T23:32:31.638Z,9.00
2023-04-04T23:34:58.612Z,7.70
2023-04-04T23:37:26.125Z,8.10
2023-04-04T23:39:53.189Z,8.32
2023-04-04T23:42:20.297Z,7.32
2023-04-04T23:44:48.667Z,8.95
2023-04-04T23:47:16.234Z,6.13
2023-04-04T23:49:43.246Z,7.43
2023-04-04T23:52:10.412Z,8.98
2023-04-04T23:54:37.450Z,8.00
2023-04-04T23:57:04.566Z,8.02
2023-04-04T23:59:31.593Z,8.45
